createdAt,value
2022-10-24T00:01:34.332Z,85.69
2022-10-24T00:04:02.920Z,85.48
2022-10-24T00:06:30.262Z,86.27
2022-10-24T00:08:57.779Z,86.12
2022-10-24T00:11:28.133Z,86.69
2022-10-24T00:13:57.354Z,87.16
2022-10-24T00:16:24.652Z,87.32
2022-10-24T00:18:52.662Z,87.13
2022-10-24T00:21:20.197Z,87.34
2022-10-24T00:23:47.869Z,86.87
2022-10-24T00:26:16.819Z,87.44
2022-10-24T00:28:44.637Z,87.26
2022-10-24T00:31:15.309Z,88.11
2022-10-24T00:33:44.009Z,88.43
2022-10-24T00:36:29.754Z,87.94
2022-10-24T00:38:58.783Z,87.49
2022-10-24T00:41:33.547Z,87.87
2022-10-24T00:44:23.460Z,88.85
2022-10-24T00:46:56.823Z,88.90
2022-10-24T00:49:29.723Z,88.87
2022-10-24T00:52:03.837Z,88.96
2022-10-24T00:54:31.670Z,90.13
2022-10-24T00:57:08.138Z,89.84
2022-10-24T00:59:37.104Z,90.73
2022-10-24T01:02:04.573Z,90.53
2022-10-24T01:04:32.303Z,91.58
2022-10-24T01:07:02.762Z,93.80
2022-10-24T01:09:36.218Z,95.59
2022-10-24T01:12:34.838Z,95.77
2022-10-24T01:15:13.733Z,96.87
2022-10-24T01:18:00.454Z,97.58
2022-10-24T01:21:09.984Z,98.17
2022-10-24T01:24:32.178Z,100.00
2022-10-24T01:27:24.912Z,100.00
2022-10-24T01:30:08.787Z,100.00
2022-10-24T01:32:52.584Z,100.00
2022-10-24T01:35:36.294Z,100.00
2022-10-24T01:38:14.037Z,100.00
2022-10-24T01:41:10.452Z,100.00
2022-10-24T01:43:49.925Z,100.00
2022-10-24T01:46:22.972Z,100.00
2022-10-24T01:49:00.880Z,100.00
2022-10-24T01:51:31.489Z,100.00
2022-10-24T01:54:18.133Z,100.00
2022-10-24T01:56:45.505Z,100.00
2022-10-24T01:59:31.354Z,100.00
2022-10-24T02:02:01.163Z,100.00
2022-10-24T02:04:32.653Z,100.00
2022-10-24T02:07:04.456Z,100.00
2022-10-24T02:09:35.360Z,100.00
2022-10-24T02:12:05.820Z,100.00
2022-10-24T02:14:38.560Z,100.00
2022-10-24T02:17:07.564Z,100.00
2022-10-24T02:19:40.464Z,100.00
2022-10-24T02:22:26.938Z,100.00
2022-10-24T02:25:07.392Z,100.00
2022-10-24T02:27:40.784Z,100.00
2022-10-24T02:30:14.180Z,100.00
2022-10-24T02:32:48.842Z,100.00
2022-10-24T02:35:19.010Z,100.00
2022-10-24T02:37:51.492Z,100.00
2022-10-24T02:40:22.062Z,100.00
2022-10-24T02:43:09.601Z,99.62
2022-10-24T02:45:38.678Z,98.58
2022-10-24T02:48:10.800Z,98.21
2022-10-24T02:50:41.396Z,98.54
2022-10-24T02:53:16.426Z,97.86
2022-10-24T02:55:43.972Z,97.86
2022-10-24T02:58:11.224Z,97.79
2022-10-24T03:00:39.021Z,98.00
2022-10-24T03:03:06.637Z,98.89
2022-10-24T03:05:34.184Z,99.08
2022-10-24T03:08:01.633Z,98.64
2022-10-24T03:10:29.926Z,97.15
2022-10-24T03:13:00.120Z,94.57
2022-10-24T03:15:38.042Z,92.97
2022-10-24T03:18:05.947Z,93.13
2022-10-24T03:20:35.225Z,92.87
2022-10-24T03:23:04.871Z,93.25
2022-10-24T03:25:35.127Z,95.44
2022-10-24T03:28:02.538Z,96.57
2022-10-24T03:30:30.123Z,100.00
2022-10-24T03:32:57.336Z,100.00
2022-10-24T03:35:24.875Z,100.00
2022-10-24T03:37:52.126Z,100.00
2022-10-24T03:40:19.641Z,100.00
2022-10-24T03:42:47.219Z,100.00
2022-10-24T03:45:15.836Z,100.00
2022-10-24T03:47:43.139Z,100.00
2022-10-24T03:50:10.945Z,100.00
2022-10-24T03:52:38.760Z,100.00
2022-10-24T03:55:06.766Z,100.00
2022-10-24T03:57:34.020Z,100.00
2022-10-24T04:00:01.705Z,100.00
2022-10-24T04:02:40.204Z,100.00
2022-10-24T04:05:13.872Z,100.00
2022-10-24T04:07:45.898Z,100.00
2022-10-24T04:10:14.456Z,100.00
2022-10-24T04:12:48.115Z,100.00
2022-10-24T04:15:16.182Z,100.00
2022-10-24T04:17:43.736Z,100.00
2022-10-24T04:20:12.600Z,100.00
2022-10-24T04:22:40.099Z,100.00
2022-10-24T04:25:07.773Z,99.49
2022-10-24T04:27:37.072Z,99.42
2022-10-24T04:30:05.053Z,99.59
2022-10-24T04:32:32.308Z,100.00
2022-10-24T04:35:00.023Z,99.96
2022-10-24T04:37:27.256Z,97.51
2022-10-24T04:39:55.283Z,96.51
2022-10-24T04:42:23.855Z,98.10
2022-10-24T04:44:53.507Z,100.00
2022-10-24T04:49:53.212Z,100.00
2022-10-24T04:52:20.560Z,100.00
2022-10-24T04:54:49.192Z,100.00
2022-10-24T04:57:16.425Z,100.00
2022-10-24T04:59:44.040Z,100.00
2022-10-24T05:02:11.399Z,100.00
2022-10-24T05:04:39.238Z,100.00
2022-10-24T05:07:06.551Z,100.00
2022-10-24T05:09:34.237Z,100.00
2022-10-24T05:12:02.353Z,100.00
2022-10-24T05:14:30.005Z,100.00
2022-10-24T05:16:57.266Z,100.00
2022-10-24T05:19:24.725Z,100.00
2022-10-24T05:21:52.182Z,100.00
2022-10-24T05:24:19.863Z,100.00
2022-10-24T05:26:47.125Z,100.00
2022-10-24T05:29:14.551Z,100.00
2022-10-24T05:31:41.782Z,100.00
2022-10-24T05:34:11.432Z,100.00
2022-10-24T05:36:38.785Z,100.00
2022-10-24T05:39:06.332Z,100.00
2022-10-24T05:41:34.213Z,100.00
2022-10-24T05:44:01.925Z,100.00
2022-10-24T05:46:30.580Z,100.00
2022-10-24T05:48:59.893Z,100.00
2022-10-24T05:51:28.746Z,100.00
2022-10-24T05:54:00.265Z,100.00
2022-10-24T05:56:31.080Z,100.00
2022-10-24T05:58:58.672Z,100.00
2022-10-24T06:01:26.456Z,100.00
2022-10-24T06:03:54.513Z,100.00
2022-10-24T06:06:21.936Z,100.00
2022-10-24T06:08:49.981Z,100.00
2022-10-24T06:11:17.903Z,100.00
2022-10-24T06:13:45.604Z,100.00
2022-10-24T06:16:13.037Z,93.76
2022-10-24T06:18:41.383Z,86.70
2022-10-24T06:21:09.875Z,81.65
2022-10-24T06:23:37.777Z,79.41
2022-10-24T06:26:11.572Z,78.96
2022-10-24T06:28:39.202Z,76.19
2022-10-24T06:31:08.033Z,73.62
2022-10-24T06:33:35.754Z,70.32
2022-10-24T06:36:05.627Z,69.68
2022-10-24T06:38:33.619Z,68.33
2022-10-24T06:41:06.580Z,65.85
2022-10-24T06:43:34.275Z,63.90
2022-10-24T06:46:06.871Z,61.41
2022-10-24T06:48:35.812Z,60.18
2022-10-24T06:51:04.857Z,60.54
2022-10-24T06:53:33.439Z,59.84
2022-10-24T06:56:05.159Z,60.92
2022-10-24T06:58:33.696Z,62.17
2022-10-24T07:01:01.083Z,63.16
2022-10-24T07:03:28.823Z,64.34
2022-10-24T07:05:56.058Z,62.36
2022-10-24T07:08:23.594Z,60.68
2022-10-24T07:10:50.909Z,61.50
2022-10-24T07:13:18.414Z,59.87
2022-10-24T07:15:45.689Z,58.21
2022-10-24T07:18:16.382Z,57.96
2022-10-24T07:20:44.039Z,59.36
2022-10-24T07:23:11.839Z,58.38
2022-10-24T07:25:40.248Z,59.00
2022-10-24T07:28:09.061Z,58.38
2022-10-24T07:30:39.290Z,58.07
2022-10-24T07:33:06.944Z,57.13
2022-10-24T07:35:34.733Z,56.38
2022-10-24T07:38:02.979Z,57.26
2022-10-24T07:40:36.779Z,55.76
2022-10-24T07:43:04.931Z,55.84
2022-10-24T07:45:32.462Z,55.70
2022-10-24T07:48:00.257Z,58.09
2022-10-24T07:50:27.784Z,58.24
2022-10-24T07:52:55.871Z,57.65
2022-10-24T07:55:23.291Z,56.30
2022-10-24T07:57:50.897Z,54.99
2022-10-24T08:00:18.562Z,53.65
2022-10-24T08:02:46.351Z,52.84
2022-10-24T08:05:13.697Z,50.95
2022-10-24T08:07:41.248Z,50.10
2022-10-24T08:10:12.608Z,50.50
2022-10-24T08:12:41.143Z,50.13
2022-10-24T08:15:09.164Z,47.40
2022-10-24T08:17:36.947Z,47.55
2022-10-24T08:20:10.261Z,47.88
2022-10-24T08:22:38.119Z,44.07
2022-10-24T08:25:08.301Z,43.71
2022-10-24T08:27:36.178Z,45.54
2022-10-24T08:30:04.817Z,47.53
2022-10-24T08:32:32.449Z,47.27
2022-10-24T08:34:59.695Z,47.46
2022-10-24T08:37:27.305Z,47.31
2022-10-24T08:39:55.841Z,48.66
2022-10-24T08:42:25.350Z,47.93
2022-10-24T08:44:53.657Z,47.10
2022-10-24T08:47:34.116Z,47.85
2022-10-24T08:50:24.539Z,47.22
2022-10-24T08:53:09.226Z,46.98
2022-10-24T08:55:50.485Z,47.01
2022-10-24T08:58:37.306Z,46.81
2022-10-24T09:01:46.723Z,46.35
2022-10-24T09:04:19.565Z,46.78
2022-10-24T09:06:48.120Z,46.79
2022-10-24T09:09:26.824Z,48.00
2022-10-24T09:12:01.928Z,47.22
2022-10-24T09:14:39.090Z,46.58
2022-10-24T09:17:23.280Z,44.98
2022-10-24T09:19:56.317Z,44.71
2022-10-24T09:22:29.737Z,44.57
2022-10-24T09:25:09.772Z,43.98
2022-10-24T09:27:40.635Z,44.91
2022-10-24T09:30:19.491Z,46.46
2022-10-24T09:32:47.701Z,48.44
2022-10-24T09:35:27.929Z,48.72
2022-10-24T09:37:57.618Z,49.93
2022-10-24T09:40:29.810Z,49.59
2022-10-24T09:43:27.242Z,50.69
2022-10-24T09:46:06.351Z,49.26
2022-10-24T09:48:55.334Z,48.35
2022-10-24T09:51:28.852Z,49.75
2022-10-24T09:54:06.634Z,50.12
2022-10-24T09:56:40.831Z,48.89
2022-10-24T09:59:20.099Z,47.66
2022-10-24T10:01:48.124Z,46.76
2022-10-24T10:04:19.706Z,46.02
2022-10-24T10:06:50.325Z,47.07
2022-10-24T10:09:35.101Z,46.80
2022-10-24T10:12:03.192Z,47.70
2022-10-24T10:14:30.982Z,46.08
2022-10-24T10:17:05.547Z,45.92
2022-10-24T10:19:38.883Z,46.71
2022-10-24T10:22:22.459Z,46.49
2022-10-24T10:24:50.383Z,46.47
2022-10-24T10:27:32.296Z,46.03
2022-10-24T10:30:20.716Z,46.10
2022-10-24T10:33:19.327Z,43.79
2022-10-24T10:35:55.975Z,44.14
2022-10-24T10:38:37.397Z,44.41
2022-10-24T10:41:42.059Z,44.42
2022-10-24T10:44:15.515Z,43.82
2022-10-24T10:47:04.539Z,44.53
2022-10-24T10:49:39.918Z,45.02
2022-10-24T10:52:13.161Z,45.19
2022-10-24T10:55:15.907Z,43.44
2022-10-24T10:58:21.397Z,44.77
2022-10-24T11:01:23.233Z,44.42
2022-10-24T11:04:16.453Z,44.45
2022-10-24T11:07:06.511Z,46.65
2022-10-24T11:09:41.259Z,46.92
2022-10-24T11:12:25.085Z,45.51
2022-10-24T11:15:04.993Z,44.40
2022-10-24T11:17:44.146Z,43.96
2022-10-24T11:20:24.075Z,44.46
2022-10-24T11:23:05.543Z,43.28
2022-10-24T11:25:52.463Z,43.23
2022-10-24T11:28:41.498Z,42.28
2022-10-24T11:31:12.616Z,43.24
2022-10-24T11:34:10.520Z,41.87
2022-10-24T11:36:45.920Z,42.46
2022-10-24T11:39:20.486Z,43.73
2022-10-24T11:41:50.644Z,44.71
2022-10-24T11:44:26.953Z,45.17
2022-10-24T11:47:06.553Z,46.45
2022-10-24T11:49:41.114Z,45.79
2022-10-24T11:52:22.889Z,44.36
2022-10-24T11:54:53.297Z,44.64
2022-10-24T11:57:26.182Z,45.02
2022-10-24T11:59:55.469Z,45.13
2022-10-24T12:02:41.424Z,47.19
2022-10-24T12:05:24.114Z,46.24
2022-10-24T12:08:06.249Z,45.14
2022-10-24T12:10:58.238Z,44.83
2022-10-24T12:14:07.077Z,43.46
2022-10-24T12:16:46.982Z,42.96
2022-10-24T12:19:18.379Z,42.16
2022-10-24T12:21:51.880Z,42.47
2022-10-24T12:24:24.823Z,42.16
2022-10-24T12:27:00.124Z,39.80
2022-10-24T12:29:28.190Z,40.60
2022-10-24T12:31:55.692Z,40.46
2022-10-24T12:34:23.250Z,40.04
2022-10-24T12:37:30.384Z,39.13
2022-10-24T12:39:58.770Z,38.87
2022-10-24T12:42:26.248Z,39.73
2022-10-24T12:44:59.725Z,40.10
2022-10-24T12:47:37.876Z,39.43
2022-10-24T12:50:23.107Z,39.33
2022-10-24T12:52:56.679Z,40.65
2022-10-24T12:55:39.434Z,40.13
2022-10-24T12:58:32.576Z,38.26
2022-10-24T13:01:29.856Z,39.07
2022-10-24T13:04:22.608Z,39.67
2022-10-24T13:07:00.794Z,41.53
2022-10-24T13:09:50.240Z,42.23
2022-10-24T13:12:37.246Z,41.52
2022-10-24T13:15:22.826Z,42.04
2022-10-24T13:18:19.521Z,42.13
2022-10-24T13:21:12.680Z,41.98
2022-10-24T13:23:50.940Z,42.40
2022-10-24T13:26:41.251Z,43.98
2022-10-24T13:29:48.182Z,42.96
2022-10-24T13:32:18.637Z,43.28
2022-10-24T13:34:52.694Z,43.30
2022-10-24T13:37:42.435Z,43.95
2022-10-24T13:40:21.640Z,43.44
2022-10-24T13:42:51.463Z,43.41
2022-10-24T13:45:18.695Z,44.00
2022-10-24T13:47:53.932Z,44.11
2022-10-24T13:50:23.734Z,44.33
2022-10-24T13:52:57.785Z,44.02
2022-10-24T13:55:47.966Z,44.37
2022-10-24T13:58:27.870Z,44.36
2022-10-24T14:01:03.205Z,44.17
2022-10-24T14:03:33.973Z,43.70
2022-10-24T14:06:05.733Z,43.71
2022-10-24T14:08:36.143Z,44.39
2022-10-24T14:11:09.323Z,44.10
2022-10-24T14:13:42.797Z,44.29
2022-10-24T14:16:11.101Z,44.83
2022-10-24T14:18:39.571Z,45.48
2022-10-24T14:21:22.761Z,45.28
2022-10-24T14:24:15.673Z,46.57
2022-10-24T14:26:45.693Z,46.95
2022-10-24T14:29:32.559Z,48.38
2022-10-24T14:32:10.151Z,48.47
2022-10-24T14:34:39.430Z,47.64
2022-10-24T14:37:16.870Z,47.34
2022-10-24T14:39:44.567Z,48.20
2022-10-24T14:42:18.588Z,49.51
2022-10-24T14:44:47.378Z,49.29
2022-10-24T14:47:22.904Z,49.64
2022-10-24T14:49:50.945Z,49.73
2022-10-24T14:52:39.100Z,51.48
2022-10-24T14:55:18.297Z,52.43
2022-10-24T14:57:51.334Z,52.50
2022-10-24T15:00:22.455Z,52.64
2022-10-24T15:02:51.728Z,53.80
2022-10-24T15:05:25.146Z,55.08
2022-10-24T15:08:21.178Z,55.18
2022-10-24T15:11:00.695Z,58.07
2022-10-24T15:13:32.487Z,60.80
2022-10-24T15:16:01.649Z,62.18
2022-10-24T15:18:41.329Z,62.26
2022-10-24T15:21:19.260Z,62.52
2022-10-24T15:23:55.682Z,62.85
2022-10-24T15:26:25.270Z,66.05
2022-10-24T15:29:14.330Z,65.85
2022-10-24T15:31:44.556Z,67.38
2022-10-24T15:34:18.079Z,68.77
2022-10-24T15:36:54.366Z,70.46
2022-10-24T15:39:27.010Z,72.77
2022-10-24T15:44:33.672Z,75.94
2022-10-24T15:47:01.398Z,76.80
2022-10-24T15:49:29.112Z,79.03
2022-10-24T15:52:01.509Z,77.94
2022-10-24T15:54:29.401Z,78.32
2022-10-24T15:56:59.380Z,78.03
2022-10-24T15:59:27.768Z,78.25
2022-10-24T16:02:00.337Z,77.81
2022-10-24T16:04:28.559Z,78.50
2022-10-24T16:06:56.165Z,77.34
2022-10-24T16:09:40.952Z,77.30
2022-10-24T16:12:15.685Z,75.63
2022-10-24T16:14:47.156Z,77.81
2022-10-24T16:17:18.172Z,83.92
2022-10-24T16:19:50.453Z,83.25
2022-10-24T16:22:18.006Z,83.29
2022-10-24T16:24:45.437Z,82.77
2022-10-24T16:27:12.955Z,78.80
2022-10-24T16:29:40.204Z,76.77
2022-10-24T16:32:07.804Z,76.95
2022-10-24T16:34:35.067Z,74.59
2022-10-24T16:37:05.108Z,78.36
2022-10-24T16:39:33.950Z,82.91
2022-10-24T16:42:04.816Z,83.75
2022-10-24T16:44:37.543Z,78.72
2022-10-24T16:47:10.154Z,81.58
2022-10-24T16:49:41.677Z,76.93
2022-10-24T16:52:10.394Z,75.76
2022-10-24T16:54:44.900Z,74.13
2022-10-24T16:57:13.039Z,78.85
2022-10-24T16:59:42.220Z,77.46
2022-10-24T17:02:17.262Z,78.04
2022-10-24T17:04:57.933Z,81.22
2022-10-24T17:07:29.641Z,81.25
2022-10-24T17:10:03.148Z,80.10
2022-10-24T17:12:35.248Z,77.84
2022-10-24T17:15:06.172Z,81.74
2022-10-24T17:17:41.738Z,79.06
2022-10-24T17:20:16.262Z,77.95
2022-10-24T17:23:16.826Z,82.89
2022-10-24T17:25:50.992Z,84.88
2022-10-24T17:28:34.824Z,82.46
2022-10-24T17:31:04.386Z,82.39
2022-10-24T17:33:37.215Z,83.36
2022-10-24T17:36:16.430Z,80.74
2022-10-24T17:39:13.138Z,81.77
2022-10-24T17:41:46.034Z,81.79
2022-10-24T17:44:19.944Z,82.24
2022-10-24T17:46:54.522Z,83.18
2022-10-24T17:49:29.991Z,81.14
2022-10-24T17:52:03.623Z,81.99
2022-10-24T17:54:37.173Z,87.55
2022-10-24T17:57:08.253Z,84.71
2022-10-24T17:59:38.884Z,85.46
2022-10-24T18:02:21.359Z,83.36
2022-10-24T18:04:56.028Z,83.30
2022-10-24T18:07:25.579Z,88.00
2022-10-24T18:10:02.149Z,83.61
2022-10-24T18:12:37.337Z,84.74
2022-10-24T18:15:14.327Z,93.03
2022-10-24T18:17:53.176Z,84.82
2022-10-24T18:20:23.021Z,85.79
2022-10-24T18:22:54.941Z,84.09
2022-10-24T18:25:30.798Z,85.67
2022-10-24T18:28:03.543Z,85.23
2022-10-24T18:30:38.431Z,85.38
2022-10-24T18:33:08.631Z,83.61
2022-10-24T18:35:38.807Z,85.81
2022-10-24T18:38:12.075Z,84.15
2022-10-24T18:41:20.737Z,80.34
2022-10-24T18:44:38.539Z,83.95
2022-10-24T18:47:16.344Z,81.34
2022-10-24T18:49:44.785Z,82.15
2022-10-24T18:53:02.006Z,83.30
2022-10-24T18:55:35.268Z,85.71
2022-10-24T18:58:17.333Z,85.38
2022-10-24T19:00:47.837Z,87.86
2022-10-24T19:09:53.156Z,91.77
2022-10-24T19:17:01.591Z,92.02
2022-10-24T19:19:39.157Z,89.62
2022-10-24T19:22:37.318Z,88.24
2022-10-24T19:25:31.868Z,89.70
2022-10-24T19:28:00.931Z,90.84
2022-10-24T19:30:34.231Z,90.88
2022-10-24T19:33:06.090Z,90.74
2022-10-24T19:35:41.899Z,93.16
2022-10-24T19:38:15.373Z,94.46
2022-10-24T19:41:59.094Z,95.95
2022-10-24T19:44:56.487Z,94.63
2022-10-24T19:47:28.149Z,91.93
2022-10-24T19:49:59.744Z,91.29
2022-10-24T19:52:53.429Z,91.81
2022-10-24T19:55:23.037Z,90.93
2022-10-24T19:57:55.568Z,90.16
2022-10-24T20:00:33.485Z,91.93
2022-10-24T20:03:02.966Z,91.31
2022-10-24T20:05:33.232Z,93.89
2022-10-24T20:08:07.516Z,95.36
2022-10-24T20:11:00.511Z,94.04
2022-10-24T20:13:34.901Z,93.64
2022-10-24T20:16:16.570Z,94.00
2022-10-24T20:18:50.643Z,95.08
2022-10-24T20:21:20.265Z,95.20
2022-10-24T20:23:53.923Z,95.02
2022-10-24T20:26:25.805Z,92.34
2022-10-24T20:33:28.249Z,90.03
2022-10-24T20:36:21.788Z,88.74
2022-10-24T20:38:51.481Z,87.33
2022-10-24T20:41:26.091Z,87.38
2022-10-24T20:44:02.628Z,88.32
2022-10-24T20:46:59.089Z,89.20
2022-10-24T20:49:55.478Z,89.66
2022-10-24T20:52:26.030Z,89.79
2022-10-24T20:55:07.707Z,89.33
2022-10-24T20:57:51.381Z,90.73
2022-10-24T21:00:22.970Z,89.91
2022-10-24T21:03:17.154Z,87.90
2022-10-24T21:05:46.915Z,87.42
2022-10-24T21:08:20.365Z,90.87
2022-10-24T21:11:00.010Z,89.96
2022-10-24T21:13:35.639Z,90.38
2022-10-24T21:16:29.485Z,87.51
2022-10-24T21:18:59.980Z,89.35
2022-10-24T21:21:30.584Z,85.73
2022-10-24T21:24:10.548Z,83.63
2022-10-24T21:26:44.629Z,83.04
2022-10-24T21:29:32.351Z,82.01
2022-10-24T21:32:05.031Z,81.69
2022-10-24T21:34:37.735Z,82.52
2022-10-24T21:37:06.722Z,83.39
2022-10-24T21:39:41.828Z,83.78
2022-10-24T21:42:11.505Z,82.50
2022-10-24T21:44:42.547Z,82.16
2022-10-24T21:47:11.252Z,80.77
2022-10-24T21:50:29.013Z,79.88
2022-10-24T21:53:00.541Z,79.55
2022-10-24T21:55:43.775Z,82.29
2022-10-24T21:58:15.761Z,83.81
2022-10-24T22:00:43.546Z,83.92
2022-10-24T22:03:12.550Z,83.62
2022-10-24T22:05:54.684Z,82.46
2022-10-24T22:08:29.004Z,82.84
2022-10-24T22:11:11.004Z,82.40
2022-10-24T22:13:41.419Z,81.55
2022-10-24T22:16:10.707Z,81.72
2022-10-24T22:18:52.476Z,81.75
2022-10-24T22:21:29.254Z,80.96
2022-10-24T22:24:03.263Z,80.32
2022-10-24T22:26:56.257Z,84.73
2022-10-24T22:29:24.969Z,85.11
2022-10-24T22:31:53.364Z,82.24
2022-10-24T22:34:25.281Z,83.08
2022-10-24T22:37:01.144Z,83.67
2022-10-24T22:39:33.243Z,82.85
2022-10-24T22:42:14.692Z,82.12
2022-10-24T22:44:47.404Z,81.55
2022-10-24T22:47:34.732Z,81.60
2022-10-24T22:50:21.990Z,82.04
2022-10-24T22:52:56.568Z,82.77
2022-10-24T22:55:37.664Z,82.47
2022-10-24T22:58:06.820Z,85.33
2022-10-24T23:00:38.086Z,88.61
2022-10-24T23:03:33.000Z,90.68
2022-10-24T23:06:13.321Z,91.48
2022-10-24T23:08:47.745Z,89.94
2022-10-24T23:11:24.508Z,90.27
2022-10-24T23:13:53.211Z,94.25
2022-10-24T23:16:46.066Z,94.63
2022-10-24T23:19:26.239Z,95.33
2022-10-24T23:22:18.523Z,93.71
2022-10-24T23:24:47.171Z,93.84
2022-10-24T23:27:29.978Z,96.15
2022-10-24T23:29:59.165Z,96.66
2022-10-24T23:32:32.556Z,98.88
2022-10-24T23:35:01.603Z,100.00
2022-10-24T23:37:48.070Z,100.00
2022-10-24T23:40:32.456Z,100.00
2022-10-24T23:43:02.236Z,100.00
2022-10-24T23:45:37.717Z,100.00
2022-10-24T23:48:50.336Z,100.00
2022-10-24T23:51:27.870Z,100.00
2022-10-24T23:53:58.819Z,100.00
2022-10-24T23:56:28.687Z,100.00
2022-10-24T23:59:02.210Z,100.00
